sensor_id;sensor_type;location;lat;lon;timestamp;P1;durP1;ratioP1;P2;durP2;ratioP2
19219;SDS011;9744;49.364;7.484;2024-01-16T00:00:41;23.57;;;9.37;;
19219;SDS011;9744;49.364;7.484;2024-01-16T00:03:08;24.20;;;9.33;;
19219;SDS011;9744;49.364;7.484;2024-01-16T00:05:35;17.30;;;8.33;;
19219;SDS011;9744;49.364;7.484;2024-01-16T00:08:03;15.23;;;8.73;;
19219;SDS011;9744;49.364;7.484;2024-01-16T00:10:32;22.80;;;8.93;;
19219;SDS011;9744;49.364;7.484;2024-01-16T00:12:59;16.63;;;8.53;;
19219;SDS011;9744;49.364;7.484;2024-01-16T00:15:26;21.80;;;9.63;;
19219;SDS011;9744;49.364;7.484;2024-01-16T00:17:54;15.13;;;9.80;;
19219;SDS011;9744;49.364;7.484;2024-01-16T00:20:21;26.27;;;9.23;;
19219;SDS011;9744;49.364;7.484;2024-01-16T00:22:51;20.20;;;9.43;;
19219;SDS011;9744;49.364;7.484;2024-01-16T00:25:18;20.80;;;8.57;;
19219;SDS011;9744;49.364;7.484;2024-01-16T00:27:48;20.13;;;9.37;;
19219;SDS011;9744;49.364;7.484;2024-01-16T00:30:15;21.57;;;9.17;;
19219;SDS011;9744;49.364;7.484;2024-01-16T00:32:43;20.63;;;8.90;;
19219;SDS011;9744;49.364;7.484;2024-01-16T00:35:10;20.37;;;9.97;;
19219;SDS011;9744;49.364;7.484;2024-01-16T00:37:38;15.10;;;8.80;;
19219;SDS011;9744;49.364;7.484;2024-01-16T00:40:05;16.37;;;9.03;;
19219;SDS011;9744;49.364;7.484;2024-01-16T00:42:34;19.33;;;9.30;;
19219;SDS011;9744;49.364;7.484;2024-01-16T00:45:03;24.40;;;8.90;;
19219;SDS011;9744;49.364;7.484;2024-01-16T00:47:31;19.73;;;9.17;;
19219;SDS011;9744;49.364;7.484;2024-01-16T00:49:58;19.80;;;9.10;;
19219;SDS011;9744;49.364;7.484;2024-01-16T00:52:26;19.63;;;9.30;;
19219;SDS011;9744;49.364;7.484;2024-01-16T00:54:53;18.63;;;9.13;;
19219;SDS011;9744;49.364;7.484;2024-01-16T00:57:20;19.13;;;9.37;;
19219;SDS011;9744;49.364;7.484;2024-01-16T00:59:47;17.07;;;8.97;;
19219;SDS011;9744;49.364;7.484;2024-01-16T01:02:16;23.97;;;9.27;;
19219;SDS011;9744;49.364;7.484;2024-01-16T01:04:43;20.00;;;9.60;;
19219;SDS011;9744;49.364;7.484;2024-01-16T01:07:12;16.13;;;8.40;;
19219;SDS011;9744;49.364;7.484;2024-01-16T01:09:40;18.73;;;8.57;;
19219;SDS011;9744;49.364;7.484;2024-01-16T01:12:08;21.13;;;9.10;;
19219;SDS011;9744;49.364;7.484;2024-01-16T01:14:35;23.77;;;9.97;;
19219;SDS011;9744;49.364;7.484;2024-01-16T01:17:03;20.50;;;9.30;;
19219;SDS011;9744;49.364;7.484;2024-01-16T01:19:32;18.83;;;9.07;;
19219;SDS011;9744;49.364;7.484;2024-01-16T01:21:59;20.87;;;9.70;;
19219;SDS011;9744;49.364;7.484;2024-01-16T01:24:26;18.47;;;9.83;;
19219;SDS011;9744;49.364;7.484;2024-01-16T01:26:54;21.30;;;10.33;;
19219;SDS011;9744;49.364;7.484;2024-01-16T01:29:21;22.20;;;9.17;;
19219;SDS011;9744;49.364;7.484;2024-01-16T01:31:48;20.60;;;9.00;;
19219;SDS011;9744;49.364;7.484;2024-01-16T01:34:16;17.97;;;8.43;;
19219;SDS011;9744;49.364;7.484;2024-01-16T01:36:44;18.23;;;8.20;;
19219;SDS011;9744;49.364;7.484;2024-01-16T01:39:12;19.23;;;8.57;;
19219;SDS011;9744;49.364;7.484;2024-01-16T01:41:40;19.00;;;9.37;;
19219;SDS011;9744;49.364;7.484;2024-01-16T01:44:07;22.23;;;9.47;;
19219;SDS011;9744;49.364;7.484;2024-01-16T01:46:40;21.53;;;9.27;;
19219;SDS011;9744;49.364;7.484;2024-01-16T01:49:08;19.03;;;9.60;;
19219;SDS011;9744;49.364;7.484;2024-01-16T01:51:37;16.97;;;9.50;;
19219;SDS011;9744;49.364;7.484;2024-01-16T01:54:06;20.23;;;9.00;;
19219;SDS011;9744;49.364;7.484;2024-01-16T01:56:34;22.13;;;9.33;;
19219;SDS011;9744;49.364;7.484;2024-01-16T01:59:02;20.93;;;9.73;;
19219;SDS011;9744;49.364;7.484;2024-01-16T02:01:30;23.40;;;8.97;;
19219;SDS011;9744;49.364;7.484;2024-01-16T02:03:58;22.00;;;9.00;;
19219;SDS011;9744;49.364;7.484;2024-01-16T02:06:27;21.27;;;9.80;;
19219;SDS011;9744;49.364;7.484;2024-01-16T02:08:54;29.67;;;9.60;;
19219;SDS011;9744;49.364;7.484;2024-01-16T02:11:23;26.37;;;9.63;;
19219;SDS011;9744;49.364;7.484;2024-01-16T02:13:51;21.33;;;9.53;;
19219;SDS011;9744;49.364;7.484;2024-01-16T02:16:18;21.73;;;9.13;;
19219;SDS011;9744;49.364;7.484;2024-01-16T02:18:46;23.20;;;9.93;;
19219;SDS011;9744;49.364;7.484;2024-01-16T02:21:15;24.53;;;10.07;;
19219;SDS011;9744;49.364;7.484;2024-01-16T02:23:47;19.40;;;9.77;;
19219;SDS011;9744;49.364;7.484;2024-01-16T02:26:14;22.20;;;9.93;;
19219;SDS011;9744;49.364;7.484;2024-01-16T02:28:42;21.13;;;9.13;;
19219;SDS011;9744;49.364;7.484;2024-01-16T02:31:09;22.27;;;9.80;;
19219;SDS011;9744;49.364;7.484;2024-01-16T02:33:36;23.40;;;9.57;;
19219;SDS011;9744;49.364;7.484;2024-01-16T02:36:04;22.80;;;10.17;;
19219;SDS011;9744;49.364;7.484;2024-01-16T02:38:31;21.70;;;9.63;;
19219;SDS011;9744;49.364;7.484;2024-01-16T02:41:01;21.10;;;8.70;;
19219;SDS011;9744;49.364;7.484;2024-01-16T02:43:28;18.90;;;9.70;;
19219;SDS011;9744;49.364;7.484;2024-01-16T02:45:55;20.43;;;9.40;;
19219;SDS011;9744;49.364;7.484;2024-01-16T02:48:23;27.30;;;9.70;;
19219;SDS011;9744;49.364;7.484;2024-01-16T02:50:50;26.87;;;10.53;;
19219;SDS011;9744;49.364;7.484;2024-01-16T02:53:18;22.07;;;9.83;;
19219;SDS011;9744;49.364;7.484;2024-01-16T02:55:45;23.73;;;10.07;;
19219;SDS011;9744;49.364;7.484;2024-01-16T02:58:14;27.93;;;11.83;;
19219;SDS011;9744;49.364;7.484;2024-01-16T03:00:41;23.50;;;10.57;;
19219;SDS011;9744;49.364;7.484;2024-01-16T03:03:10;21.00;;;10.60;;
19219;SDS011;9744;49.364;7.484;2024-01-16T03:05:37;21.43;;;10.73;;
19219;SDS011;9744;49.364;7.484;2024-01-16T03:08:05;24.83;;;10.40;;
19219;SDS011;9744;49.364;7.484;2024-01-16T03:10:33;24.93;;;10.00;;
19219;SDS011;9744;49.364;7.484;2024-01-16T03:13:00;20.60;;;9.90;;
19219;SDS011;9744;49.364;7.484;2024-01-16T03:15:29;24.57;;;11.13;;
19219;SDS011;9744;49.364;7.484;2024-01-16T03:17:57;20.00;;;10.30;;
19219;SDS011;9744;49.364;7.484;2024-01-16T03:20:25;23.40;;;10.57;;
19219;SDS011;9744;49.364;7.484;2024-01-16T03:22:52;24.20;;;9.93;;
19219;SDS011;9744;49.364;7.484;2024-01-16T03:25:20;30.90;;;10.37;;
19219;SDS011;9744;49.364;7.484;2024-01-16T03:27:47;23.20;;;10.30;;
19219;SDS011;9744;49.364;7.484;2024-01-16T03:30:15;27.10;;;10.17;;
19219;SDS011;9744;49.364;7.484;2024-01-16T03:32:43;26.47;;;10.17;;
19219;SDS011;9744;49.364;7.484;2024-01-16T03:35:11;22.50;;;10.60;;
19219;SDS011;9744;49.364;7.484;2024-01-16T03:37:38;22.97;;;10.53;;
19219;SDS011;9744;49.364;7.484;2024-01-16T03:40:05;25.50;;;10.00;;
19219;SDS011;9744;49.364;7.484;2024-01-16T03:42:33;23.37;;;10.30;;
19219;SDS011;9744;49.364;7.484;2024-01-16T03:45:01;19.47;;;9.90;;
19219;SDS011;9744;49.364;7.484;2024-01-16T03:47:30;24.60;;;10.40;;
19219;SDS011;9744;49.364;7.484;2024-01-16T03:49:58;21.53;;;10.37;;
19219;SDS011;9744;49.364;7.484;2024-01-16T03:52:26;22.27;;;10.20;;
19219;SDS011;9744;49.364;7.484;2024-01-16T03:54:53;18.90;;;10.27;;
19219;SDS011;9744;49.364;7.484;2024-01-16T03:57:20;28.70;;;10.53;;
19219;SDS011;9744;49.364;7.484;2024-01-16T03:59:47;23.03;;;9.77;;
19219;SDS011;9744;49.364;7.484;2024-01-16T04:02:14;23.57;;;9.27;;
19219;SDS011;9744;49.364;7.484;2024-01-16T04:04:42;27.33;;;10.87;;
19219;SDS011;9744;49.364;7.484;2024-01-16T04:07:10;23.77;;;11.50;;
19219;SDS011;9744;49.364;7.484;2024-01-16T04:09:39;23.17;;;10.13;;
19219;SDS011;9744;49.364;7.484;2024-01-16T04:12:06;24.83;;;10.60;;
19219;SDS011;9744;49.364;7.484;2024-01-16T04:14:33;19.90;;;9.73;;
19219;SDS011;9744;49.364;7.484;2024-01-16T04:17:01;26.03;;;9.83;;
19219;SDS011;9744;49.364;7.484;2024-01-16T04:19:28;23.90;;;12.17;;
19219;SDS011;9744;49.364;7.484;2024-01-16T04:21:59;29.03;;;10.50;;
19219;SDS011;9744;49.364;7.484;2024-01-16T04:24:28;30.30;;;10.50;;
19219;SDS011;9744;49.364;7.484;2024-01-16T04:26:55;29.00;;;11.10;;
19219;SDS011;9744;49.364;7.484;2024-01-16T04:29:23;26.67;;;11.53;;
19219;SDS011;9744;49.364;7.484;2024-01-16T04:31:50;25.40;;;11.13;;
19219;SDS011;9744;49.364;7.484;2024-01-16T04:34:17;27.03;;;11.50;;
19219;SDS011;9744;49.364;7.484;2024-01-16T04:36:44;25.03;;;10.90;;
19219;SDS011;9744;49.364;7.484;2024-01-16T04:39:13;25.13;;;11.13;;
19219;SDS011;9744;49.364;7.484;2024-01-16T04:41:42;24.63;;;10.97;;
19219;SDS011;9744;49.364;7.484;2024-01-16T04:44:09;25.77;;;10.80;;
19219;SDS011;9744;49.364;7.484;2024-01-16T04:46:37;22.93;;;10.20;;
19219;SDS011;9744;49.364;7.484;2024-01-16T04:49:04;26.03;;;10.63;;
19219;SDS011;9744;49.364;7.484;2024-01-16T04:51:32;23.57;;;10.77;;
19219;SDS011;9744;49.364;7.484;2024-01-16T04:53:59;25.43;;;11.37;;
19219;SDS011;9744;49.364;7.484;2024-01-16T04:56:26;28.13;;;11.43;;
19219;SDS011;9744;49.364;7.484;2024-01-16T04:58:55;25.07;;;11.77;;
19219;SDS011;9744;49.364;7.484;2024-01-16T05:01:22;27.63;;;11.20;;
19219;SDS011;9744;49.364;7.484;2024-01-16T05:03:50;25.47;;;12.63;;
19219;SDS011;9744;49.364;7.484;2024-01-16T05:06:19;33.83;;;11.60;;
19219;SDS011;9744;49.364;7.484;2024-01-16T05:08:47;27.43;;;11.47;;
19219;SDS011;9744;49.364;7.484;2024-01-16T05:11:14;21.53;;;11.30;;
19219;SDS011;9744;49.364;7.484;2024-01-16T05:13:41;22.60;;;11.53;;
19219;SDS011;9744;49.364;7.484;2024-01-16T05:16:10;27.30;;;11.80;;
19219;SDS011;9744;49.364;7.484;2024-01-16T05:18:37;27.00;;;12.07;;
19219;SDS011;9744;49.364;7.484;2024-01-16T05:21:05;30.17;;;13.17;;
19219;SDS011;9744;49.364;7.484;2024-01-16T05:23:32;27.50;;;12.60;;
19219;SDS011;9744;49.364;7.484;2024-01-16T05:25:59;27.33;;;12.17;;
19219;SDS011;9744;49.364;7.484;2024-01-16T05:28:27;26.40;;;11.83;;
19219;SDS011;9744;49.364;7.484;2024-01-16T05:30:54;27.23;;;12.93;;
19219;SDS011;9744;49.364;7.484;2024-01-16T05:33:22;25.20;;;11.60;;
19219;SDS011;9744;49.364;7.484;2024-01-16T05:35:50;27.00;;;12.57;;
19219;SDS011;9744;49.364;7.484;2024-01-16T05:38:18;30.70;;;13.33;;
19219;SDS011;9744;49.364;7.484;2024-01-16T05:40:46;30.00;;;11.60;;
19219;SDS011;9744;49.364;7.484;2024-01-16T05:43:14;37.73;;;12.10;;
19219;SDS011;9744;49.364;7.484;2024-01-16T05:45:41;36.80;;;16.33;;
19219;SDS011;9744;49.364;7.484;2024-01-16T05:48:09;26.93;;;14.37;;
19219;SDS011;9744;49.364;7.484;2024-01-16T05:50:37;45.23;;;18.67;;
19219;SDS011;9744;49.364;7.484;2024-01-16T05:53:04;58.17;;;27.43;;
19219;SDS011;9744;49.364;7.484;2024-01-16T05:55:33;57.40;;;28.63;;
19219;SDS011;9744;49.364;7.484;2024-01-16T05:58:02;26.87;;;14.00;;
19219;SDS011;9744;49.364;7.484;2024-01-16T06:00:30;51.30;;;20.03;;
19219;SDS011;9744;49.364;7.484;2024-01-16T06:02:59;51.57;;;23.33;;
19219;SDS011;9744;49.364;7.484;2024-01-16T06:05:26;54.07;;;26.47;;
19219;SDS011;9744;49.364;7.484;2024-01-16T06:07:54;34.37;;;15.53;;
19219;SDS011;9744;49.364;7.484;2024-01-16T06:10:22;22.60;;;12.57;;
19219;SDS011;9744;49.364;7.484;2024-01-16T06:12:49;32.87;;;11.17;;
19219;SDS011;9744;49.364;7.484;2024-01-16T06:15:16;26.77;;;11.67;;
19219;SDS011;9744;49.364;7.484;2024-01-16T06:17:43;31.70;;;11.47;;
19219;SDS011;9744;49.364;7.484;2024-01-16T06:20:11;28.83;;;11.50;;
19219;SDS011;9744;49.364;7.484;2024-01-16T06:22:38;23.87;;;11.10;;
19219;SDS011;9744;49.364;7.484;2024-01-16T06:25:07;28.60;;;12.27;;
19219;SDS011;9744;49.364;7.484;2024-01-16T06:27:34;26.40;;;11.00;;
19219;SDS011;9744;49.364;7.484;2024-01-16T06:30:02;27.83;;;12.40;;
19219;SDS011;9744;49.364;7.484;2024-01-16T06:32:30;30.50;;;11.83;;
19219;SDS011;9744;49.364;7.484;2024-01-16T06:34:57;30.70;;;14.17;;
19219;SDS011;9744;49.364;7.484;2024-01-16T06:37:24;32.03;;;13.87;;
19219;SDS011;9744;49.364;7.484;2024-01-16T06:39:51;29.40;;;11.93;;
19219;SDS011;9744;49.364;7.484;2024-01-16T06:42:20;50.40;;;18.73;;
19219;SDS011;9744;49.364;7.484;2024-01-16T06:44:47;32.97;;;14.43;;
19219;SDS011;9744;49.364;7.484;2024-01-16T06:47:14;30.20;;;14.57;;
19219;SDS011;9744;49.364;7.484;2024-01-16T06:49:42;32.30;;;14.87;;
19219;SDS011;9744;49.364;7.484;2024-01-16T06:52:09;34.97;;;15.73;;
19219;SDS011;9744;49.364;7.484;2024-01-16T06:54:36;37.30;;;15.87;;
19219;SDS011;9744;49.364;7.484;2024-01-16T06:57:03;34.33;;;15.37;;
19219;SDS011;9744;49.364;7.484;2024-01-16T06:59:33;33.53;;;14.30;;
19219;SDS011;9744;49.364;7.484;2024-01-16T07:02:00;34.33;;;14.83;;
19219;SDS011;9744;49.364;7.484;2024-01-16T07:04:28;32.03;;;14.40;;
19219;SDS011;9744;49.364;7.484;2024-01-16T07:06:55;39.27;;;14.80;;
19219;SDS011;9744;49.364;7.484;2024-01-16T07:09:24;33.23;;;14.27;;
19219;SDS011;9744;49.364;7.484;2024-01-16T07:11:52;46.37;;;19.90;;
19219;SDS011;9744;49.364;7.484;2024-01-16T07:14:19;36.00;;;15.43;;
19219;SDS011;9744;49.364;7.484;2024-01-16T07:16:48;32.73;;;14.93;;
19219;SDS011;9744;49.364;7.484;2024-01-16T07:19:15;37.30;;;15.37;;
19219;SDS011;9744;49.364;7.484;2024-01-16T07:21:43;32.17;;;14.23;;
19219;SDS011;9744;49.364;7.484;2024-01-16T07:24:11;36.00;;;15.20;;
19219;SDS011;9744;49.364;7.484;2024-01-16T07:26:39;29.97;;;16.23;;
19219;SDS011;9744;49.364;7.484;2024-01-16T07:29:06;38.73;;;19.53;;
19219;SDS011;9744;49.364;7.484;2024-01-16T07:31:34;40.90;;;18.27;;
19219;SDS011;9744;49.364;7.484;2024-01-16T07:34:03;44.23;;;19.33;;
19219;SDS011;9744;49.364;7.484;2024-01-16T07:36:30;34.87;;;16.43;;
19219;SDS011;9744;49.364;7.484;2024-01-16T07:38:57;41.73;;;18.00;;
19219;SDS011;9744;49.364;7.484;2024-01-16T07:41:25;44.07;;;17.20;;
19219;SDS011;9744;49.364;7.484;2024-01-16T07:43:53;40.87;;;17.90;;
19219;SDS011;9744;49.364;7.484;2024-01-16T07:46:20;41.90;;;16.70;;
19219;SDS011;9744;49.364;7.484;2024-01-16T07:48:47;43.33;;;17.80;;
19219;SDS011;9744;49.364;7.484;2024-01-16T07:51:16;34.93;;;16.43;;
19219;SDS011;9744;49.364;7.484;2024-01-16T07:53:44;47.30;;;19.97;;
19219;SDS011;9744;49.364;7.484;2024-01-16T07:56:11;49.67;;;18.43;;
19219;SDS011;9744;49.364;7.484;2024-01-16T07:58:39;42.87;;;18.43;;
19219;SDS011;9744;49.364;7.484;2024-01-16T08:01:06;52.97;;;18.43;;
19219;SDS011;9744;49.364;7.484;2024-01-16T08:03:33;43.10;;;17.67;;
19219;SDS011;9744;49.364;7.484;2024-01-16T08:06:01;48.73;;;19.00;;
19219;SDS011;9744;49.364;7.484;2024-01-16T08:08:29;46.20;;;18.03;;
19219;SDS011;9744;49.364;7.484;2024-01-16T08:10:59;59.07;;;24.90;;
19219;SDS011;9744;49.364;7.484;2024-01-16T08:13:26;50.00;;;22.43;;
19219;SDS011;9744;49.364;7.484;2024-01-16T08:15:53;46.50;;;20.10;;
19219;SDS011;9744;49.364;7.484;2024-01-16T08:18:21;47.97;;;20.13;;
19219;SDS011;9744;49.364;7.484;2024-01-16T08:20:48;44.77;;;18.90;;
19219;SDS011;9744;49.364;7.484;2024-01-16T08:23:15;48.40;;;19.83;;
19219;SDS011;9744;49.364;7.484;2024-01-16T08:25:45;49.93;;;19.67;;
19219;SDS011;9744;49.364;7.484;2024-01-16T08:28:12;47.97;;;19.40;;
19219;SDS011;9744;49.364;7.484;2024-01-16T08:30:39;51.20;;;20.43;;
19219;SDS011;9744;49.364;7.484;2024-01-16T08:33:06;55.53;;;21.17;;
19219;SDS011;9744;49.364;7.484;2024-01-16T08:35:34;53.70;;;22.17;;
19219;SDS011;9744;49.364;7.484;2024-01-16T08:38:01;60.10;;;24.73;;
19219;SDS011;9744;49.364;7.484;2024-01-16T08:40:28;49.90;;;21.70;;
19219;SDS011;9744;49.364;7.484;2024-01-16T08:42:57;53.27;;;20.50;;
19219;SDS011;9744;49.364;7.484;2024-01-16T08:45:24;50.53;;;21.03;;
19219;SDS011;9744;49.364;7.484;2024-01-16T08:47:51;53.13;;;21.07;;
19219;SDS011;9744;49.364;7.484;2024-01-16T08:50:18;48.40;;;19.87;;
19219;SDS011;9744;49.364;7.484;2024-01-16T08:52:45;48.50;;;20.90;;
19219;SDS011;9744;49.364;7.484;2024-01-16T08:55:13;53.53;;;23.70;;
19219;SDS011;9744;49.364;7.484;2024-01-16T08:57:40;54.80;;;21.77;;
19219;SDS011;9744;49.364;7.484;2024-01-16T09:00:09;52.33;;;22.03;;
19219;SDS011;9744;49.364;7.484;2024-01-16T09:02:37;51.03;;;21.07;;
19219;SDS011;9744;49.364;7.484;2024-01-16T09:05:05;57.43;;;21.77;;
19219;SDS011;9744;49.364;7.484;2024-01-16T09:07:32;46.23;;;20.23;;
19219;SDS011;9744;49.364;7.484;2024-01-16T09:09:59;50.37;;;21.03;;
19219;SDS011;9744;49.364;7.484;2024-01-16T09:12:27;50.47;;;21.07;;
19219;SDS011;9744;49.364;7.484;2024-01-16T09:14:55;42.17;;;19.93;;
19219;SDS011;9744;49.364;7.484;2024-01-16T09:17:23;56.07;;;22.67;;
19219;SDS011;9744;49.364;7.484;2024-01-16T09:19:51;57.13;;;21.40;;
19219;SDS011;9744;49.364;7.484;2024-01-16T09:22:18;49.23;;;21.50;;
19219;SDS011;9744;49.364;7.484;2024-01-16T09:24:45;58.10;;;21.97;;
19219;SDS011;9744;49.364;7.484;2024-01-16T09:27:13;59.73;;;22.90;;
19219;SDS011;9744;49.364;7.484;2024-01-16T09:29:41;53.37;;;21.93;;
19219;SDS011;9744;49.364;7.484;2024-01-16T09:32:09;54.17;;;22.43;;
19219;SDS011;9744;49.364;7.484;2024-01-16T09:34:37;55.40;;;22.37;;
19219;SDS011;9744;49.364;7.484;2024-01-16T09:37:05;55.17;;;24.30;;
19219;SDS011;9744;49.364;7.484;2024-01-16T09:39:32;72.03;;;28.93;;
19219;SDS011;9744;49.364;7.484;2024-01-16T09:42:00;63.63;;;23.57;;
19219;SDS011;9744;49.364;7.484;2024-01-16T09:44:27;53.73;;;23.80;;
19219;SDS011;9744;49.364;7.484;2024-01-16T09:46:55;48.70;;;21.07;;
19219;SDS011;9744;49.364;7.484;2024-01-16T09:49:24;48.20;;;21.60;;
19219;SDS011;9744;49.364;7.484;2024-01-16T09:51:53;43.67;;;20.70;;
19219;SDS011;9744;49.364;7.484;2024-01-16T09:54:20;52.30;;;21.07;;
19219;SDS011;9744;49.364;7.484;2024-01-16T09:56:48;50.23;;;21.07;;
19219;SDS011;9744;49.364;7.484;2024-01-16T09:59:20;55.43;;;20.00;;
19219;SDS011;9744;49.364;7.484;2024-01-16T10:01:49;51.07;;;20.90;;
19219;SDS011;9744;49.364;7.484;2024-01-16T10:04:18;47.03;;;19.77;;
19219;SDS011;9744;49.364;7.484;2024-01-16T10:06:45;42.67;;;19.23;;
19219;SDS011;9744;49.364;7.484;2024-01-16T10:09:15;47.20;;;20.20;;
19219;SDS011;9744;49.364;7.484;2024-01-16T10:11:42;46.80;;;20.40;;
19219;SDS011;9744;49.364;7.484;2024-01-16T10:14:10;38.13;;;18.90;;
19219;SDS011;9744;49.364;7.484;2024-01-16T10:19:27;49.93;;;19.57;;
19219;SDS011;9744;49.364;7.484;2024-01-16T10:22:00;51.40;;;20.97;;
19219;SDS011;9744;49.364;7.484;2024-01-16T10:24:29;44.77;;;19.80;;
19219;SDS011;9744;49.364;7.484;2024-01-16T10:26:59;47.50;;;19.13;;
19219;SDS011;9744;49.364;7.484;2024-01-16T10:29:28;38.80;;;17.93;;
19219;SDS011;9744;49.364;7.484;2024-01-16T10:31:56;41.87;;;18.17;;
19219;SDS011;9744;49.364;7.484;2024-01-16T10:34:24;48.13;;;18.67;;
19219;SDS011;9744;49.364;7.484;2024-01-16T10:36:51;42.63;;;20.20;;
19219;SDS011;9744;49.364;7.484;2024-01-16T10:39:24;46.20;;;23.43;;
19219;SDS011;9744;49.364;7.484;2024-01-16T10:41:56;53.33;;;24.37;;
19219;SDS011;9744;49.364;7.484;2024-01-16T10:44:24;53.07;;;20.90;;
19219;SDS011;9744;49.364;7.484;2024-01-16T10:46:53;39.97;;;18.47;;
19219;SDS011;9744;49.364;7.484;2024-01-16T10:49:37;40.13;;;18.83;;
19219;SDS011;9744;49.364;7.484;2024-01-16T10:52:06;43.57;;;18.57;;
19219;SDS011;9744;49.364;7.484;2024-01-16T10:54:40;38.27;;;16.07;;
19219;SDS011;9744;49.364;7.484;2024-01-16T10:57:11;37.73;;;18.00;;
19219;SDS011;9744;49.364;7.484;2024-01-16T10:59:41;39.37;;;17.10;;
19219;SDS011;9744;49.364;7.484;2024-01-16T11:02:14;39.27;;;17.07;;
19219;SDS011;9744;49.364;7.484;2024-01-16T11:04:44;35.27;;;15.13;;
19219;SDS011;9744;49.364;7.484;2024-01-16T11:07:13;38.67;;;16.30;;
19219;SDS011;9744;49.364;7.484;2024-01-16T11:09:41;36.20;;;16.30;;
19219;SDS011;9744;49.364;7.484;2024-01-16T11:12:10;41.40;;;17.20;;
19219;SDS011;9744;49.364;7.484;2024-01-16T11:14:42;35.97;;;15.15;;
19219;SDS011;9744;49.364;7.484;2024-01-16T11:17:12;35.33;;;16.77;;
19219;SDS011;9744;49.364;7.484;2024-01-16T11:19:44;34.53;;;15.53;;
19219;SDS011;9744;49.364;7.484;2024-01-16T11:22:12;37.77;;;16.23;;
19219;SDS011;9744;49.364;7.484;2024-01-16T11:24:40;41.00;;;18.20;;
19219;SDS011;9744;49.364;7.484;2024-01-16T11:27:18;39.95;;;16.90;;
19219;SDS011;9744;49.364;7.484;2024-01-16T11:29:49;34.67;;;15.13;;
19219;SDS011;9744;49.364;7.484;2024-01-16T11:34:59;31.77;;;14.10;;
19219;SDS011;9744;49.364;7.484;2024-01-16T11:37:27;33.38;;;14.10;;
19219;SDS011;9744;49.364;7.484;2024-01-16T11:42:54;41.25;;;14.80;;
19219;SDS011;9744;49.364;7.484;2024-01-16T11:48:16;35.38;;;12.90;;
19219;SDS011;9744;49.364;7.484;2024-01-16T11:50:45;30.50;;;13.07;;
19219;SDS011;9744;49.364;7.484;2024-01-16T11:59:26;26.58;;;11.77;;
19219;SDS011;9744;49.364;7.484;2024-01-16T12:02:10;24.85;;;11.80;;
19219;SDS011;9744;49.364;7.484;2024-01-16T12:04:42;27.35;;;11.40;;
19219;SDS011;9744;49.364;7.484;2024-01-16T12:07:18;27.45;;;11.82;;
19219;SDS011;9744;49.364;7.484;2024-01-16T12:09:45;27.45;;;11.95;;
19219;SDS011;9744;49.364;7.484;2024-01-16T12:12:12;30.65;;;11.95;;
19219;SDS011;9744;49.364;7.484;2024-01-16T12:14:51;31.75;;;11.52;;
19219;SDS011;9744;49.364;7.484;2024-01-16T12:17:19;30.10;;;9.27;;
19219;SDS011;9744;49.364;7.484;2024-01-16T12:19:47;23.30;;;9.55;;
19219;SDS011;9744;49.364;7.484;2024-01-16T12:22:15;27.95;;;12.65;;
19219;SDS011;9744;49.364;7.484;2024-01-16T12:24:43;29.75;;;10.63;;
19219;SDS011;9744;49.364;7.484;2024-01-16T12:27:12;26.80;;;10.20;;
19219;SDS011;9744;49.364;7.484;2024-01-16T12:29:41;26.42;;;10.05;;
19219;SDS011;9744;49.364;7.484;2024-01-16T12:32:09;25.92;;;11.63;;
19219;SDS011;9744;49.364;7.484;2024-01-16T12:34:43;23.05;;;9.43;;
19219;SDS011;9744;49.364;7.484;2024-01-16T12:37:11;23.63;;;10.00;;
19219;SDS011;9744;49.364;7.484;2024-01-16T12:39:39;24.98;;;10.63;;
19219;SDS011;9744;49.364;7.484;2024-01-16T12:42:07;19.40;;;9.05;;
19219;SDS011;9744;49.364;7.484;2024-01-16T12:44:37;21.02;;;8.90;;
19219;SDS011;9744;49.364;7.484;2024-01-16T12:47:04;20.63;;;9.38;;
19219;SDS011;9744;49.364;7.484;2024-01-16T12:49:33;24.38;;;8.82;;
19219;SDS011;9744;49.364;7.484;2024-01-16T12:52:14;22.38;;;8.40;;
19219;SDS011;9744;49.364;7.484;2024-01-16T12:54:43;23.85;;;9.50;;
19219;SDS011;9744;49.364;7.484;2024-01-16T12:57:10;17.58;;;8.35;;
19219;SDS011;9744;49.364;7.484;2024-01-16T12:59:45;25.55;;;8.70;;
19219;SDS011;9744;49.364;7.484;2024-01-16T13:02:20;23.60;;;7.43;;
19219;SDS011;9744;49.364;7.484;2024-01-16T13:04:57;20.63;;;8.65;;
19219;SDS011;9744;49.364;7.484;2024-01-16T13:07:25;22.70;;;7.90;;
19219;SDS011;9744;49.364;7.484;2024-01-16T13:10:05;18.25;;;8.82;;
19219;SDS011;9744;49.364;7.484;2024-01-16T13:12:34;29.30;;;9.23;;
19219;SDS011;9744;49.364;7.484;2024-01-16T13:15:02;15.98;;;7.00;;
19219;SDS011;9744;49.364;7.484;2024-01-16T13:17:31;19.23;;;6.97;;
19219;SDS011;9744;49.364;7.484;2024-01-16T13:20:01;23.20;;;9.00;;
19219;SDS011;9744;49.364;7.484;2024-01-16T13:22:32;16.95;;;7.05;;
19219;SDS011;9744;49.364;7.484;2024-01-16T13:24:59;16.08;;;7.72;;
19219;SDS011;9744;49.364;7.484;2024-01-16T13:27:27;19.35;;;7.38;;
19219;SDS011;9744;49.364;7.484;2024-01-16T13:29:55;16.75;;;6.50;;
19219;SDS011;9744;49.364;7.484;2024-01-16T13:32:23;16.00;;;6.85;;
19219;SDS011;9744;49.364;7.484;2024-01-16T13:34:51;14.93;;;6.80;;
19219;SDS011;9744;49.364;7.484;2024-01-16T13:37:20;17.08;;;6.38;;
19219;SDS011;9744;49.364;7.484;2024-01-16T13:39:48;14.23;;;6.03;;
19219;SDS011;9744;49.364;7.484;2024-01-16T13:42:16;27.33;;;9.25;;
19219;SDS011;9744;49.364;7.484;2024-01-16T13:44:45;21.75;;;7.60;;
19219;SDS011;9744;49.364;7.484;2024-01-16T13:47:13;15.18;;;6.93;;
19219;SDS011;9744;49.364;7.484;2024-01-16T13:49:41;22.73;;;8.45;;
19219;SDS011;9744;49.364;7.484;2024-01-16T13:52:10;20.10;;;8.77;;
19219;SDS011;9744;49.364;7.484;2024-01-16T13:54:38;18.33;;;7.78;;
19219;SDS011;9744;49.364;7.484;2024-01-16T13:57:07;23.77;;;7.65;;
19219;SDS011;9744;49.364;7.484;2024-01-16T13:59:34;17.95;;;7.18;;
19219;SDS011;9744;49.364;7.484;2024-01-16T14:02:02;22.65;;;7.70;;
19219;SDS011;9744;49.364;7.484;2024-01-16T14:04:30;13.55;;;5.85;;
19219;SDS011;9744;49.364;7.484;2024-01-16T14:06:57;18.05;;;7.50;;
19219;SDS011;9744;49.364;7.484;2024-01-16T14:09:24;19.38;;;6.63;;
19219;SDS011;9744;49.364;7.484;2024-01-16T14:11:54;18.20;;;6.72;;
19219;SDS011;9744;49.364;7.484;2024-01-16T14:14:22;33.90;;;11.13;;
19219;SDS011;9744;49.364;7.484;2024-01-16T14:16:49;58.05;;;18.02;;
19219;SDS011;9744;49.364;7.484;2024-01-16T14:19:16;20.98;;;8.38;;
19219;SDS011;9744;49.364;7.484;2024-01-16T14:21:43;20.63;;;9.00;;
19219;SDS011;9744;49.364;7.484;2024-01-16T14:24:12;16.75;;;7.75;;
19219;SDS011;9744;49.364;7.484;2024-01-16T14:26:41;18.20;;;6.00;;
19219;SDS011;9744;49.364;7.484;2024-01-16T14:29:12;25.00;;;9.38;;
19219;SDS011;9744;49.364;7.484;2024-01-16T14:31:39;16.10;;;7.45;;
19219;SDS011;9744;49.364;7.484;2024-01-16T14:34:09;10.32;;;5.60;;
19219;SDS011;9744;49.364;7.484;2024-01-16T14:36:39;16.38;;;6.60;;
19219;SDS011;9744;49.364;7.484;2024-01-16T14:39:06;11.13;;;6.00;;
19219;SDS011;9744;49.364;7.484;2024-01-16T14:41:38;16.00;;;6.32;;
19219;SDS011;9744;49.364;7.484;2024-01-16T14:44:07;16.38;;;7.53;;
19219;SDS011;9744;49.364;7.484;2024-01-16T14:46:37;17.05;;;8.18;;
19219;SDS011;9744;49.364;7.484;2024-01-16T14:49:04;19.52;;;7.05;;
19219;SDS011;9744;49.364;7.484;2024-01-16T14:51:33;11.00;;;5.88;;
19219;SDS011;9744;49.364;7.484;2024-01-16T14:54:00;20.23;;;6.95;;
19219;SDS011;9744;49.364;7.484;2024-01-16T14:56:27;19.42;;;8.60;;
19219;SDS011;9744;49.364;7.484;2024-01-16T14:58:55;20.77;;;8.63;;
19219;SDS011;9744;49.364;7.484;2024-01-16T15:01:22;20.23;;;8.75;;